• Join FlightAware (Why Join?)
  • Login
  • US Flag 
04:14PM EDT


 

Airport Tracker/Info


-or-


 

Live Flight TrackerFlight Track Log ✈ UAL762 ✈ 28-May-2012 ✈ KDEN - KJAC

Flight Track Log - Related Links

Times and Time Zones

All times are in EDT time to prevent confusion due to time zone crossing. See the UAL762 flight status page for this flight to view local times or setup timezone preferences in your user account.

Time Position Orientation Groundspeed Altitude Reporting Facility
EDT Latitude Longitude Course Direction KTS MPH feet Rate Location/Type
01:29PM 39.8500 -104.7667 316° Northwest 185 213 7,600  Level Denver TRACON
01:33PM 40.0181 -104.9778 North 328 377 20,000 2,880 Climbing Denver Center
01:34PM 40.1186 -104.9608 North 337 388 22,000 1,440 Climbing Denver Center
01:35PM 40.2256 -104.9439 North 393 452 23,000 960 Climbing Denver Center
01:36PM 40.3536 -104.9239 351° North 426 490 24,100 840 Climbing Denver Center
01:37PM 40.4792 -104.9506 315° West 473 544 24,800 960 Climbing Denver Center
01:38PM 40.5622 -105.0581 308° West 428 493 26,100 1,260 Climbing Denver Center
01:39PM 40.6364 -105.1814 308° West 424 488 27,500 1,440 Climbing Denver Center
01:40PM 40.7122 -105.3114 307° West 439 505 29,200 1,620 Climbing Denver Center
01:41PM 40.7964 -105.4592 308° West 433 498 30,900 1,440 Climbing Denver Center
01:42PM 40.8694 -105.5836 307° West 427 491 32,200 1,200 Climbing Denver Center
01:43PM 40.9414 -105.7089 308° West 425 489 33,500 1,320 Climbing Denver Center
01:44PM 41.0122 -105.8297 307° West 418 481 35,000 1,200 Climbing Denver Center
01:45PM 41.0856 -105.9594 307° West 410 472 36,000 480 Climbing Denver Center
01:46PM 41.1522 -106.0767 307° West 412 474 36,000  Level Denver Center
01:47PM 41.2317 -106.2150 306° West 416 479 36,000 -60 Level Denver Center
01:48PM 41.2961 -106.3311 307° West 414 476 35,900  Descending Denver Center
01:49PM 41.3750 -106.4697 307° West 418 481 36,000  Climbing Denver Center
01:50PM 41.4428 -106.5919 307° West 422 486 36,000  Level Denver Center
01:51PM 41.5211 -106.7311 306° West 423 487 36,000  Level Denver Center
01:52PM 41.5869 -106.8508 307° West 420 483 36,000  Level Denver Center
01:53PM 41.6411 -106.9481 306° West 416 479 36,000  Level Salt Lake Center
01:54PM 41.7181 -107.0878 306° West 417 480 36,000  Level Salt Lake Center
01:55PM 41.7844 -107.2094 306° West 421 484 36,000  Level Salt Lake Center
01:56PM 41.8611 -107.3506 306° West 421 484 36,000  Level Salt Lake Center
01:57PM 41.9278 -107.4728 307° West 423 487 36,000  Level Salt Lake Center
01:58PM 42.0064 -107.6144 305° West 424 488 36,000  Level Salt Lake Center
01:59PM 42.0700 -107.7353 306° West 423 487 36,000  Level Salt Lake Center
02:00PM 42.1444 -107.8744 306° West 415 478 36,000  Level Salt Lake Center
02:02PM 42.2122 -107.9992 306° West 422 486 36,000  Level Salt Lake Center
02:03PM 42.2872 -108.1411 306° West 421 484 36,000  Level Salt Lake Center
02:04PM 42.3511 -108.2622 306° West 417 480 36,000  Level Salt Lake Center
02:05PM 42.4256 -108.4033 305° West 416 479 36,000  Level Salt Lake Center
02:06PM 42.4892 -108.5267 305° West 417 480 36,100  Climbing Salt Lake Center
02:07PM 42.5642 -108.6697 305° West 418 481 36,000 -60 Descending Salt Lake Center
02:08PM 42.6278 -108.7936 313° West 419 482 36,000  Level Salt Lake Center
02:09PM 42.7142 -108.9214 317° Northwest 421 484 36,000  Level Salt Lake Center
02:10PM 42.7964 -109.0264 317° Northwest 424 488 36,000 -240 Level Salt Lake Center
02:11PM 42.8903 -109.1442 318° Northwest 416 479 35,500 -2,040 Descending Salt Lake Center
02:12PM 42.9769 -109.2511 318° Northwest 409 471 31,800 -3,060 Descending Salt Lake Center
02:13PM 43.0614 -109.3564 317° Northwest 421 484 29,200 -2,460 Descending Salt Lake Center
02:14PM 43.1567 -109.4775 317° Northwest 419 482 26,700 -2,220 Descending Salt Lake Center
02:15PM 43.2331 -109.5753 318° Northwest 399 459 24,600 -2,220 Descending Salt Lake Center
02:16PM 43.3219 -109.6861 317° Northwest 388 447 22,200 -2,160 Descending Salt Lake Center
02:17PM 43.3950 -109.7800 317° Northwest 379 436 20,200 -1,860 Descending Salt Lake Center
02:18PM 43.4781 -109.8861 318° Northwest 352 405 18,400 -1,500 Descending Salt Lake Center
02:19PM 43.5422 -109.9667 317° Northwest 343 395 17,100 -1,200 Descending Salt Lake Center
02:20PM 43.6189 -110.0644 318° Northwest 335 386 15,900 -1,200 Descending Salt Lake Center
02:21PM 43.6769 -110.1369 316° Northwest 293 337 14,700 -960 Descending Salt Lake Center
02:22PM 43.7314 -110.2103 317° Northwest 278 320 13,900 -780 Descending Salt Lake Center
02:23PM 43.7833 -110.2769 317° Northwest 262 302 13,100 -540 Descending Salt Lake Center
02:24PM 43.8356 -110.3442 278° West 257 296 12,900 -540 Descending Salt Lake Center
02:25PM 43.8467 -110.4567 283° West 240 276 12,000 -960 Descending Salt Lake Center
02:26PM 43.8606 -110.5419 259° West 231 266 11,000 -660 Descending Salt Lake Center
02:28PM 43.8500 -110.6178 200° South 231 266 10,700 -540 Descending Salt Lake Center
02:29PM 43.7950 -110.6461 199° South 216 249 9,900 -780 Descending Salt Lake Center
02:30PM 43.7519 -110.6664 199° South 183 211 9,100 -780 Descending Salt Lake Center